CheckWX is a tool to help pilots better visualize weather data.  It is not intended as a substitute for an official pre-flight weather briefing.

13:55:01 UTC

TLPC TAF
George F. L. Charles Airport
Castries, Saint Lucia
TAF TLPC 261100Z 2612/2712 08006KT 9999 SCT026 BECMG 2622/2700 00000KT

Jan-26@
12:00 UTC

Jan-26 @ 12:00 UTC

Jan-26@
22:00 UTC

Jan-26 @ 22:00 UTC

TAF TLPC 261100Z 2612/2712 08006KT 9999 SCT026
Wind
  • 080° at 6 KTS
Cloud Levels
  • Scattered at 2,600' AGL

Jan-26@
22:00 UTC

Jan-26 @ 22:00 UTC

Jan-27@
12:00 UTC

Jan-27 @ 12:00 UTC

BECMG 2622/2700 00000KT

Becoming

Becoming Conditions expected by Mon, Jan 27, 2020 @ 00:00 UTC

Cloud Levels
  • Scattered at 2,600' AGL